Airfield :
LOGIN :

Register | Disclaimer

   EN    FR    IT 

 










Legend :    VFR   Marginal VFR   IFR   Intensive IFR   Very Intensive IFR
Visi :
Ceiling :
>= 8 km
>= 3000ft
5 to 8 km
1000 to 3000 ft
1500m to 5 km
500 to 1000 ft
800 to 1500m
200 to 500 ft
< 800m
< 200 ft
Symbols :   Thunderstorms  Fog  Heavy snow  Heavy precipitations  Wind > 20 kt
SIGMETs :     Misc.  Thunderstorms  Icing  Turbulence  Mountain Waves  Volcanic Ashes







- Airport Elevation : 405 ft
- IATA code : SUJ


LRSM - Satu Mare

CURRENT METAR :
  • 200900Z AUTO 13004KT 9000 RA FEW039/// BKN065/// BKN085/// 18/17 Q1020

EXPIRED METARs :
  • 200830Z AUTO 13002KT 9999 +RA FEW017/// SCT070/// BKN110/// 18/16 Q1020
  • 200800Z AUTO 14007KT 9999 RA FEW038/// SCT044/// BKN065/// 17/16 Q1019
  • 200730Z AUTO 17006KT 130V250 9999 +RA FEW025/// BKN070/// BKN095/// 17/16 Q1020
  • 200700Z AUTO 09006KT 9999 -RA FEW032/// BKN045/// OVC075/// 17/15 Q1019
  • 200630Z AUTO 06003KT 360V090 9999 RA FEW023/// SCT060/// BKN095/// 17/16 Q1020

Expired Forecast.
No reported NOTAMs for that airfield.



MET'MAP, your aeronautical weather chart ! - Copyright ORBIFLY December 2007 - Disclaimer

ORBIFLY MET'MAP TEAM :

Programming & Development : Alexandra Zaïnal
Concept & Development : Baudouin d'Aumeries
Co-Development & Prog : Marc-Olivier Méhu
Technical & hardware support : Manuel Goepfert

Contact : metmap@orbifly.com




SOURCES & CREDITS :

   NOAA